This is the latest recevied weather packets stored in our database for station/object K2RMB. If no packets are shown the sender has not sent any weather packets the latest 10 day(s).
| Time | Temp. | Humidity | Pressure | Rain* | Wind** | Luminosity | Snow |
|---|---|---|---|---|---|---|---|
| 1777295382 | 13.89° C | 49% | 1025.5 hPa | 0 mm | - | 468 W/m² | - |
| 1777295080 | 15° C | 40% | 1025.5 hPa | 0 mm | - | 452 W/m² | - |
| 1777294776 | 13.89° C | 46% | 1025.5 hPa | 0 mm | - | 434 W/m² | - |
| 1777294169 | 12.22° C | 50% | 1025.5 hPa | 0 mm | - | 403 W/m² | - |
| 1777293866 | 12.22° C | 52% | 1025.5 hPa | 0 mm | - | 383 W/m² | - |
| 1777293561 | 13.33° C | 46% | 1025.5 hPa | 0 mm | - | 367 W/m² | - |
| 1777293257 | 12.78° C | 47% | 1025.5 hPa | 0 mm | - | 348 W/m² | - |
| 1777292956 | 12.22° C | 50% | 1025.5 hPa | 0 mm | - | 330 W/m² | - |
| 1777292652 | 13.33° C | 48% | 1025.5 hPa | 0 mm | - | 319 W/m² | - |
| 1777292348 | 12.22° C | 50% | 1025.5 hPa | 0 mm | - | 218 W/m² | - |
| 1777291741 | 11.67° C | 51% | 1025.8 hPa | 0 mm | - | 108 W/m² | - |
| 1777291437 | 11.67° C | 47% | 1025.5 hPa | 0 mm | - | 240 W/m² | - |
| 1777289921 | 6.11° C | 71% | 1025.5 hPa | 0 mm | - | 133 W/m² | - |
| 1777289617 | 5.56° C | 73% | 1025.5 hPa | 0 mm | - | 82 W/m² | - |
| 1777289312 | 5° C | 73% | 1025.5 hPa | 0 mm | - | 49 W/m² | - |
| 1777289009 | 4.44° C | 75% | 1025.5 hPa | 0 mm | - | 53 W/m² | - |
| 1777288706 | 3.89° C | 77% | 1025.2 hPa | 0 mm | - | 39 W/m² | - |
| 1777288403 | 3.33° C | 78% | 1025.5 hPa | 0 mm | - | 37 W/m² | - |
| 1777288099 | 2.78° C | 81% | 1025.5 hPa | 0 mm | - | 36 W/m² | - |
| 1777287796 | 2.78° C | 83% | 1025.2 hPa | 0 mm | - | 34 W/m² | - |
| 1777287493 | 2.78° C | 84% | 1025.2 hPa | 0 mm | - | 33 W/m² | - |
| 1777287188 | 2.78° C | 84% | 1025.2 hPa | 0 mm | - | 31 W/m² | - |
| 1777286279 | 2.22° C | 84% | 1025.5 hPa | 0 mm | - | 25 W/m² | - |
| 1777285976 | 2.22° C | 85% | 1025.5 hPa | 0 mm | - | 23 W/m² | - |
| 1777285674 | 1.67° C | 85% | 1025.5 hPa | 0 mm | - | 20 W/m² | - |
* Rain latest hour (hover to see other rain measurements)
** Current wind speed in m/s (hover to see current wind gust speed)